Time;durP1;ratioP1;P1;durP2;ratioP2;P2;SDS_P1;SDS_P2;PMS_P1;PMS_P2;Temp;Humidity;BMP_temperature;BMP_pressure;BME280_temperature;BME280_humidity;BME280_pressure;Samples;Min_cycle;Max_cycle;Signal;HPM_P1;HPM_P2
2022/04/05 00:01:43;;;;;;;11.07;5.75;;;7.20;91.20;;;;;;5050206;28;20444;-71
2022/04/05 00:04:10;;;;;;;7.03;5.85;;;7.20;91.40;;;;;;5050984;28;20487;-71
2022/04/05 00:06:36;;;;;;;8.18;5.80;;;7.10;91.30;;;;;;5049112;28;20071;-71
2022/04/05 00:09:01;;;;;;;10.02;6.70;;;7.20;91.30;;;;;;5050170;28;20115;-71
2022/04/05 00:11:27;;;;;;;8.27;6.07;;;7.20;91.30;;;;;;5049502;28;20045;-71
2022/04/05 00:13:53;;;;;;;9.32;6.20;;;7.20;91.20;;;;;;5050230;28;20115;-70
2022/04/05 00:16:19;;;;;;;13.05;6.97;;;7.10;91.20;;;;;;5049005;28;20037;-71
2022/04/05 00:18:44;;;;;;;9.40;5.95;;;7.10;91.40;;;;;;5048545;28;20041;-70
2022/04/05 00:21:10;;;;;;;9.25;6.13;;;7.20;91.40;;;;;;5049344;28;20041;-71
2022/04/05 00:23:36;;;;;;;9.88;5.97;;;7.20;91.30;;;;;;5048978;28;20049;-71
2022/04/05 00:26:02;;;;;;;11.15;6.00;;;7.20;91.30;;;;;;5050066;28;20041;-70
2022/04/05 00:28:27;;;;;;;9.27;6.32;;;7.20;91.20;;;;;;5049817;28;20458;-70
2022/04/05 00:30:53;;;;;;;10.20;6.03;;;7.10;91.30;;;;;;5050227;28;20083;-71
2022/04/05 00:33:19;;;;;;;8.35;5.80;;;7.20;91.30;;;;;;5050060;28;20123;-70
2022/04/05 00:35:45;;;;;;;13.55;6.53;;;7.10;91.30;;;;;;5049595;28;20098;-71
2022/04/05 00:38:10;;;;;;;8.57;6.75;;;7.10;91.40;;;;;;5049800;28;20098;-71
2022/04/05 00:40:37;;;;;;;11.77;6.20;;;7.10;91.30;;;;;;5049564;28;20044;-70
2022/04/05 00:43:05;;;;;;;7.60;6.20;;;7.10;91.30;;;;;;5049038;28;20043;-70
2022/04/05 00:45:32;;;;;;;11.13;6.10;;;7.10;91.30;;;;;;5049081;28;20401;-71
2022/04/05 00:47:59;;;;;;;10.15;6.22;;;7.10;91.40;;;;;;5048297;28;20056;-71
2022/04/05 00:50:27;;;;;;;11.98;6.25;;;7.10;91.40;;;;;;5048484;28;20087;-71
2022/04/05 00:52:53;;;;;;;8.52;6.47;;;7.10;91.20;;;;;;5049216;28;20061;-69
2022/04/05 00:55:23;;;;;;;7.38;6.03;;;7.10;91.30;;;;;;5048984;28;20098;-71
2022/04/05 00:57:53;;;;;;;9.77;6.03;;;7.10;91.20;;;;;;5049275;28;20497;-71
2022/04/05 01:00:19;;;;;;;10.13;6.05;;;7.10;91.30;;;;;;5049460;28;20037;-71
2022/04/05 01:02:48;;;;;;;9.85;6.47;;;7.10;91.20;;;;;;5049847;28;20044;-71
2022/04/05 01:05:17;;;;;;;9.02;6.60;;;7.10;91.20;;;;;;5049621;28;20048;-71
2022/04/05 01:07:46;;;;;;;7.60;6.68;;;7.10;91.20;;;;;;5047220;28;20079;-71
2022/04/05 01:10:12;;;;;;;13.43;6.85;;;7.10;91.20;;;;;;5046322;28;20056;-71
2022/04/05 01:12:38;;;;;;;8.00;6.90;;;7.10;91.20;;;;;;5050065;28;20045;-71
2022/04/05 01:15:04;;;;;;;10.20;6.05;;;7.10;91.10;;;;;;5049242;28;20062;-71
2022/04/05 01:17:31;;;;;;;7.38;6.65;;;7.10;91.10;;;;;;5049345;28;20048;-70
2022/04/05 01:19:57;;;;;;;11.77;8.15;;;7.10;91.20;;;;;;5048704;28;20383;-70
2022/04/05 01:22:22;;;;;;;8.73;6.95;;;7.10;91.20;;;;;;5048944;28;20153;-71
2022/04/05 01:24:48;;;;;;;8.07;6.72;;;7.10;91.20;;;;;;5049145;28;20037;-71
2022/04/05 01:27:18;;;;;;;10.50;7.88;;;7.20;91.20;;;;;;5048884;28;20104;-71
2022/04/05 01:29:48;;;;;;;12.40;6.97;;;7.20;91.30;;;;;;5046808;28;20118;-71
2022/04/05 01:32:13;;;;;;;9.25;7.13;;;7.20;91.30;;;;;;5052771;28;20045;-71
2022/04/05 01:34:39;;;;;;;14.07;7.10;;;7.30;91.20;;;;;;5047158;28;20595;-70
2022/04/05 01:37:10;;;;;;;12.57;7.18;;;7.20;91.30;;;;;;5043451;28;20052;-71
2022/04/05 01:39:38;;;;;;;13.20;6.82;;;7.30;91.40;;;;;;5048804;28;20033;-70
2022/04/05 01:42:05;;;;;;;8.57;6.30;;;7.30;91.30;;;;;;5048821;28;20041;-71
2022/04/05 01:44:32;;;;;;;12.13;6.72;;;7.30;91.40;;;;;;5050088;28;20052;-71
2022/04/05 01:47:12;;;;;;;14.63;8.40;;;7.30;91.40;;;;;;5049828;28;20049;-71
2022/04/05 01:49:40;;;;;;;7.38;6.65;;;7.30;91.40;;;;;;5050283;28;20040;-71
2022/04/05 01:52:07;;;;;;;11.75;7.00;;;7.30;91.40;;;;;;5050011;28;20068;-70
2022/04/05 01:54:33;;;;;;;15.25;6.93;;;7.30;91.40;;;;;;5048689;28;20797;-70
2022/04/05 01:56:59;;;;;;;14.43;7.47;;;7.40;91.40;;;;;;5049619;28;20045;-70
2022/04/05 01:59:27;;;;;;;14.32;6.93;;;7.30;91.40;;;;;;5048574;28;20048;-71
2022/04/05 02:01:52;;;;;;;15.18;6.85;;;7.30;91.50;;;;;;5049939;28;20425;-69
2022/04/05 02:04:19;;;;;;;13.18;6.97;;;7.40;91.50;;;;;;5050444;28;20041;-70
2022/04/05 02:06:45;;;;;;;15.05;7.80;;;7.40;91.50;;;;;;5049348;28;20057;-70
2022/04/05 02:09:15;;;;;;;12.20;7.00;;;7.40;91.60;;;;;;5048535;28;20041;-70
2022/04/05 02:11:45;;;;;;;16.08;8.43;;;7.30;91.60;;;;;;5048607;28;20045;-70
2022/04/05 02:14:12;;;;;;;10.95;6.78;;;7.30;91.70;;;;;;5049985;28;20041;-70
2022/04/05 02:16:38;;;;;;;15.52;6.88;;;7.40;91.70;;;;;;5048404;28;20161;-70
2022/04/05 02:19:04;;;;;;;14.30;6.35;;;7.40;91.70;;;;;;5049663;28;20611;-70
2022/04/05 02:21:30;;;;;;;15.38;6.78;;;7.30;91.70;;;;;;5053219;28;20041;-70
2022/04/05 02:23:55;;;;;;;11.50;7.22;;;7.40;91.70;;;;;;5052620;28;20094;-70
2022/04/05 02:26:21;;;;;;;15.13;6.28;;;7.30;91.70;;;;;;5053572;28;20049;-70
2022/04/05 02:28:48;;;;;;;7.18;5.97;;;7.40;91.60;;;;;;5063034;28;20080;-70
2022/04/05 02:31:14;;;;;;;12.80;7.03;;;7.30;91.60;;;;;;5050943;28;20060;-70
2022/04/05 02:33:40;;;;;;;13.20;7.00;;;7.30;91.80;;;;;;5053635;28;20402;-70
2022/04/05 02:36:07;;;;;;;13.82;6.68;;;7.30;91.70;;;;;;5052794;28;20059;-70
2022/04/05 02:38:33;;;;;;;14.60;7.65;;;7.30;91.70;;;;;;5052169;28;20144;-70
2022/04/05 02:40:59;;;;;;;16.55;6.78;;;7.30;91.80;;;;;;5052658;28;20547;-70
2022/04/05 02:43:25;;;;;;;12.05;6.47;;;7.30;91.80;;;;;;5053234;28;20160;-71
2022/04/05 02:45:51;;;;;;;20.27;8.38;;;7.30;91.70;;;;;;5052897;28;20416;-70
2022/04/05 02:48:16;;;;;;;14.52;7.70;;;7.30;91.70;;;;;;5052022;28;20114;-70
2022/04/05 02:50:42;;;;;;;15.02;6.40;;;7.30;91.80;;;;;;5052124;28;20049;-70
2022/04/05 02:53:08;;;;;;;13.95;6.53;;;7.30;91.70;;;;;;5052890;28;20048;-70
2022/04/05 02:55:33;;;;;;;18.42;6.30;;;7.30;91.80;;;;;;5052407;28;20045;-70
2022/04/05 02:57:59;;;;;;;23.80;9.15;;;7.30;91.70;;;;;;5052739;28;20052;-70
2022/04/05 03:00:26;;;;;;;10.35;6.90;;;7.30;91.70;;;;;;5052738;28;20061;-70
2022/04/05 03:02:51;;;;;;;12.32;7.13;;;7.20;91.80;;;;;;5052548;28;20102;-71
2022/04/05 03:05:21;;;;;;;7.95;7.05;;;7.30;91.80;;;;;;5051797;28;20033;-70
2022/04/05 03:07:47;;;;;;;10.88;7.03;;;7.30;91.70;;;;;;5051319;28;20053;-70
2022/04/05 03:10:12;;;;;;;17.65;6.80;;;7.20;91.70;;;;;;5051307;28;20102;-70
2022/04/05 03:12:39;;;;;;;11.10;6.45;;;7.20;91.60;;;;;;5052156;28;20421;-71
2022/04/05 03:15:07;;;;;;;10.93;6.72;;;7.10;91.60;;;;;;5051965;28;20885;-70
2022/04/05 03:17:33;;;;;;;10.15;7.07;;;7.10;91.70;;;;;;5052498;28;20056;-71
2022/04/05 03:20:03;;;;;;;12.85;6.63;;;7.10;91.50;;;;;;5051256;28;20089;-71
2022/04/05 03:22:29;;;;;;;12.80;6.68;;;7.10;91.60;;;;;;5051988;28;20183;-71
2022/04/05 03:24:55;;;;;;;10.25;5.95;;;7.10;91.60;;;;;;5052525;28;20053;-70
2022/04/05 03:27:21;;;;;;;20.67;6.65;;;7.10;91.60;;;;;;5051786;28;20049;-70
2022/04/05 03:29:46;;;;;;;12.77;6.72;;;7.10;91.60;;;;;;5051185;28;21322;-70
2022/04/05 03:32:12;;;;;;;13.57;6.45;;;7.10;91.60;;;;;;5051712;28;20052;-70
2022/04/05 03:34:39;;;;;;;13.13;7.07;;;7.10;91.60;;;;;;5050178;28;20520;-70
2022/04/05 03:37:05;;;;;;;14.60;6.28;;;7.10;91.50;;;;;;5052055;28;20086;-70
2022/04/05 03:39:31;;;;;;;9.77;6.20;;;7.10;91.50;;;;;;5051708;28;20091;-70
2022/04/05 03:41:57;;;;;;;12.88;6.35;;;7.00;91.70;;;;;;5051384;28;20056;-70
2022/04/05 03:44:24;;;;;;;10.85;6.65;;;7.00;91.70;;;;;;5051211;28;20041;-70
2022/04/05 03:46:51;;;;;;;12.27;6.47;;;7.00;91.70;;;;;;5051850;28;20102;-71
2022/04/05 03:49:16;;;;;;;9.40;5.70;;;7.10;91.60;;;;;;5051313;28;20036;-71
2022/04/05 03:51:42;;;;;;;12.18;7.47;;;7.10;91.60;;;;;;5050714;28;20051;-70
2022/04/05 03:54:08;;;;;;;10.02;6.22;;;7.10;91.60;;;;;;5049788;28;20134;-70
2022/04/05 03:56:33;;;;;;;11.70;5.95;;;7.10;91.60;;;;;;5051520;28;20095;-71
2022/04/05 03:58:59;;;;;;;8.35;5.28;;;7.10;91.50;;;;;;5051219;28;20094;-70
2022/04/05 04:01:25;;;;;;;12.40;5.90;;;7.10;91.50;;;;;;5050931;28;20037;-70
2022/04/05 04:03:50;;;;;;;8.18;5.40;;;7.10;91.50;;;;;;5050905;28;20037;-70
2022/04/05 04:06:16;;;;;;;8.70;5.63;;;7.10;91.40;;;;;;5050487;28;20037;-71
2022/04/05 04:08:41;;;;;;;12.27;5.93;;;7.00;91.50;;;;;;5049872;28;20049;-69
2022/04/05 04:11:07;;;;;;;9.20;6.00;;;7.10;91.50;;;;;;5050688;28;20052;-71
2022/04/05 04:13:33;;;;;;;13.23;6.13;;;7.10;91.50;;;;;;5050736;28;20045;-70
2022/04/05 04:15:58;;;;;;;9.82;5.90;;;7.10;91.40;;;;;;5045875;28;20048;-70
2022/04/05 04:18:24;;;;;;;9.10;6.13;;;7.00;91.60;;;;;;5051129;28;20072;-70
2022/04/05 04:20:50;;;;;;;8.48;5.53;;;7.00;91.40;;;;;;5049740;28;20189;-70
2022/04/05 04:23:16;;;;;;;14.20;6.63;;;7.00;91.60;;;;;;5051562;28;20461;-70
2022/04/05 04:25:42;;;;;;;7.82;5.28;;;7.00;91.50;;;;;;5051085;28;20410;-70
2022/04/05 04:28:09;;;;;;;10.73;5.60;;;7.00;91.50;;;;;;5033331;28;20041;-69
2022/04/05 04:30:37;;;;;;;10.55;5.25;;;7.00;91.40;;;;;;5051076;28;20059;-70
2022/04/05 04:33:04;;;;;;;12.05;5.53;;;6.90;91.40;;;;;;5050079;28;20052;-70
2022/04/05 04:35:30;;;;;;;12.68;5.95;;;6.90;91.30;;;;;;5050466;28;20124;-70
2022/04/05 04:37:57;;;;;;;12.30;5.25;;;6.90;91.50;;;;;;5049557;28;20130;-71
2022/04/05 04:40:23;;;;;;;8.27;5.55;;;6.90;91.40;;;;;;5032848;28;20052;-71
2022/04/05 04:42:49;;;;;;;10.57;4.95;;;6.90;91.50;;;;;;5050465;28;20045;-70
2022/04/05 04:45:14;;;;;;;11.05;5.90;;;7.00;91.40;;;;;;5049625;28;20041;-71
2022/04/05 04:47:40;;;;;;;10.80;5.63;;;6.90;91.40;;;;;;5050735;28;20041;-71
2022/04/05 04:50:08;;;;;;;13.50;6.13;;;6.90;91.40;;;;;;5049177;28;20540;-70
2022/04/05 04:52:34;;;;;;;12.23;5.53;;;6.90;91.40;;;;;;5046820;28;20107;-71
2022/04/05 04:55:00;;;;;;;8.38;4.97;;;6.90;91.30;;;;;;5048520;28;20048;-70
2022/04/05 04:57:26;;;;;;;7.70;5.63;;;6.90;91.40;;;;;;5047298;28;20044;-70
2022/04/05 04:59:52;;;;;;;10.73;6.20;;;6.90;91.30;;;;;;5048225;28;20049;-70
2022/04/05 05:02:18;;;;;;;10.45;5.97;;;6.90;91.30;;;;;;5047456;28;20032;-71
2022/04/05 05:04:44;;;;;;;16.20;5.90;;;6.90;91.30;;;;;;5048857;28;20433;-72
2022/04/05 05:07:09;;;;;;;11.00;6.07;;;6.90;91.30;;;;;;5047208;28;20096;-72
2022/04/05 05:09:35;;;;;;;8.45;5.35;;;6.80;91.30;;;;;;5046505;28;20055;-71
2022/04/05 05:12:01;;;;;;;9.50;5.22;;;6.80;91.40;;;;;;5047384;28;20055;-71
2022/04/05 05:14:27;;;;;;;11.65;5.97;;;6.90;91.30;;;;;;5048376;28;20096;-70
2022/04/05 05:16:54;;;;;;;6.72;4.57;;;6.90;91.40;;;;;;5048525;28;20049;-70
2022/04/05 05:19:20;;;;;;;8.25;4.35;;;6.90;91.30;;;;;;5046867;28;20124;-69
2022/04/05 05:21:46;;;;;;;11.52;5.22;;;6.90;91.40;;;;;;5048007;28;20291;-70
2022/04/05 05:24:12;;;;;;;8.18;4.30;;;6.90;91.30;;;;;;5047885;28;20468;-71
2022/04/05 05:26:37;;;;;;;10.75;4.68;;;6.90;91.30;;;;;;5045230;28;20045;-70
2022/04/05 05:29:03;;;;;;;9.52;4.70;;;7.00;91.30;;;;;;5048276;28;20067;-70
2022/04/05 05:31:28;;;;;;;15.70;5.20;;;6.90;91.30;;;;;;5040263;28;20517;-70
2022/04/05 05:33:54;;;;;;;8.57;4.68;;;6.90;91.30;;;;;;5038864;28;20064;-69
2022/04/05 05:36:20;;;;;;;9.90;5.68;;;6.90;91.20;;;;;;5035557;28;20048;-70
2022/04/05 05:38:45;;;;;;;8.77;4.57;;;6.90;91.30;;;;;;5039861;28;20041;-70
2022/04/05 05:41:11;;;;;;;10.98;5.40;;;6.90;91.30;;;;;;5043865;28;20041;-70
2022/04/05 05:43:38;;;;;;;9.10;4.25;;;6.90;91.20;;;;;;5048112;28;20159;-69
2022/04/05 05:46:06;;;;;;;12.40;5.53;;;6.90;91.30;;;;;;5046573;28;20115;-70
2022/04/05 05:48:35;;;;;;;10.02;4.28;;;6.90;91.30;;;;;;5048084;28;20228;-70
2022/04/05 05:51:00;;;;;;;10.23;4.80;;;6.90;91.30;;;;;;5047556;28;20040;-70
2022/04/05 05:53:27;;;;;;;8.20;5.00;;;6.90;91.30;;;;;;5046913;28;20045;-69
2022/04/05 05:55:53;;;;;;;5.57;4.53;;;7.00;91.20;;;;;;5051305;28;20080;-70
2022/04/05 05:58:19;;;;;;;7.22;4.50;;;7.00;91.20;;;;;;5051630;28;20080;-70
2022/04/05 06:00:44;;;;;;;5.10;4.50;;;6.90;91.20;;;;;;5051944;28;20389;-70
2022/04/05 06:03:10;;;;;;;11.70;4.85;;;6.90;91.20;;;;;;5053734;28;20467;-71
2022/04/05 06:05:36;;;;;;;6.35;3.92;;;6.90;91.20;;;;;;5053277;28;20103;-71
2022/04/05 06:08:04;;;;;;;7.63;4.82;;;6.90;91.20;;;;;;5052504;28;20565;-70
2022/04/05 06:10:30;;;;;;;7.35;4.28;;;7.00;91.20;;;;;;5051528;28;20052;-70
2022/04/05 06:12:57;;;;;;;9.23;4.32;;;7.00;91.20;;;;;;5051254;28;20045;-70
2022/04/05 06:15:25;;;;;;;6.85;4.93;;;7.00;91.10;;;;;;5052127;28;20037;-68
2022/04/05 06:17:51;;;;;;;6.40;4.10;;;7.00;91.10;;;;;;5051927;28;20041;-68
2022/04/05 06:20:20;;;;;;;9.55;5.03;;;7.30;91.90;;;;;;5050659;28;20057;-68
2022/04/05 06:22:48;;;;;;;7.50;4.40;;;7.50;91.30;;;;;;5052046;28;20048;-68
2022/04/05 06:25:18;;;;;;;5.00;4.50;;;7.60;91.00;;;;;;5052486;28;20041;-68
2022/04/05 06:27:43;;;;;;;9.05;5.22;;;7.50;90.80;;;;;;5052585;28;20445;-68
2022/04/05 06:30:10;;;;;;;9.02;5.18;;;7.50;90.70;;;;;;5052114;28;20106;-69
2022/04/05 06:32:37;;;;;;;9.00;5.10;;;7.50;90.70;;;;;;5052363;28;20055;-68
2022/04/05 06:35:04;;;;;;;6.28;4.60;;;7.50;90.60;;;;;;5052267;28;20486;-68
2022/04/05 06:37:30;;;;;;;9.73;5.20;;;7.50;90.40;;;;;;5051827;28;20056;-68
2022/04/05 06:39:56;;;;;;;11.20;5.38;;;7.60;90.50;;;;;;5046032;28;20124;-70
2022/04/05 06:42:22;;;;;;;10.95;5.60;;;7.50;90.40;;;;;;5051669;28;20124;-68
2022/04/05 06:44:48;;;;;;;5.38;4.78;;;7.60;90.50;;;;;;5050846;28;20045;-67
2022/04/05 06:47:14;;;;;;;8.40;4.93;;;7.60;90.40;;;;;;5051351;28;20382;-68
2022/04/05 06:49:40;;;;;;;5.30;4.80;;;7.60;90.30;;;;;;5051874;28;20052;-68
2022/04/05 06:52:05;;;;;;;10.50;5.15;;;7.60;90.20;;;;;;5051130;28;20056;-68
2022/04/05 06:54:31;;;;;;;8.23;5.05;;;7.60;90.20;;;;;;5048454;28;20041;-67
2022/04/05 06:56:56;;;;;;;9.73;5.15;;;7.60;90.20;;;;;;5049249;28;20044;-67
2022/04/05 06:59:22;;;;;;;8.32;4.97;;;7.60;89.90;;;;;;5047300;28;20490;-66
2022/04/05 07:01:48;;;;;;;9.38;5.30;;;7.60;90.10;;;;;;5051073;28;20151;-67
2022/04/05 07:04:13;;;;;;;7.40;5.10;;;7.60;90.10;;;;;;5051450;28;20416;-67
2022/04/05 07:06:39;;;;;;;8.70;4.95;;;7.60;90.00;;;;;;5048349;28;20056;-66
2022/04/05 07:09:05;;;;;;;11.75;5.32;;;7.60;90.10;;;;;;5050812;28;20091;-66
2022/04/05 07:11:32;;;;;;;7.50;5.03;;;7.60;90.00;;;;;;5060051;28;20048;-67
2022/04/05 07:13:57;;;;;;;11.82;5.40;;;7.60;90.10;;;;;;5071115;28;20796;-67
2022/04/05 07:16:23;;;;;;;7.40;5.13;;;7.60;90.00;;;;;;5060352;28;20036;-67
2022/04/05 07:18:49;;;;;;;10.05;5.10;;;7.60;90.10;;;;;;5049828;28;20033;-67
2022/04/05 07:21:15;;;;;;;9.52;4.82;;;7.70;90.10;;;;;;5048604;28;20068;-67
2022/04/05 07:23:44;;;;;;;8.20;4.80;;;7.70;90.10;;;;;;5048294;28;20072;-66
2022/04/05 07:26:10;;;;;;;6.13;4.80;;;7.60;89.90;;;;;;5050344;28;20106;-66
2022/04/05 07:28:36;;;;;;;5.13;4.57;;;7.60;90.00;;;;;;5048727;28;20041;-66
2022/04/05 07:31:02;;;;;;;5.57;5.00;;;7.60;90.00;;;;;;5030339;28;20053;-67
2022/04/05 07:33:28;;;;;;;6.10;4.95;;;7.60;90.10;;;;;;5035903;28;20078;-67
2022/04/05 07:35:53;;;;;;;6.88;4.93;;;7.60;90.10;;;;;;5050987;28;20124;-66
2022/04/05 07:38:19;;;;;;;10.25;5.32;;;7.60;90.00;;;;;;5049051;28;20084;-67
2022/04/05 07:40:48;;;;;;;10.60;5.25;;;7.70;90.00;;;;;;5044952;28;20051;-67
2022/04/05 07:43:19;;;;;;;8.55;5.20;;;7.60;90.00;;;;;;5049400;28;20041;-68
2022/04/05 07:45:48;;;;;;;8.25;4.80;;;7.70;90.10;;;;;;5034098;28;20125;-67
2022/04/05 07:48:15;;;;;;;6.13;4.47;;;7.60;90.00;;;;;;5045067;28;20509;-68
2022/04/05 07:50:40;;;;;;;6.05;4.28;;;7.60;90.00;;;;;;5046863;28;20041;-67
2022/04/05 07:53:06;;;;;;;8.18;4.57;;;7.60;90.10;;;;;;5050221;28;20052;-68
2022/04/05 07:55:34;;;;;;;7.38;4.72;;;7.60;90.20;;;;;;5046976;28;20037;-68
2022/04/05 07:57:59;;;;;;;7.07;5.40;;;7.60;90.20;;;;;;5047229;28;20102;-67
2022/04/05 08:00:27;;;;;;;8.18;5.07;;;7.60;90.20;;;;;;5046646;28;20103;-67
2022/04/05 08:02:52;;;;;;;6.20;4.85;;;7.70;90.20;;;;;;5049577;28;20056;-67
2022/04/05 08:05:18;;;;;;;5.68;4.07;;;7.60;89.90;;;;;;5046433;28;20037;-67
2022/04/05 08:07:46;;;;;;;15.90;4.95;;;7.60;90.10;;;;;;5046889;28;20049;-68
2022/04/05 08:10:13;;;;;;;10.02;5.80;;;7.60;90.10;;;;;;5044221;28;20038;-68
2022/04/05 08:12:42;;;;;;;11.07;5.45;;;7.70;90.10;;;;;;5041892;28;20132;-68
2022/04/05 08:15:11;;;;;;;9.00;4.75;;;7.70;90.20;;;;;;5049064;28;20136;-68
2022/04/05 08:17:37;;;;;;;7.88;5.43;;;7.80;90.20;;;;;;5045607;28;20052;-67
2022/04/05 08:20:05;;;;;;;6.07;4.93;;;7.80;90.20;;;;;;5043979;28;20040;-68
2022/04/05 08:22:30;;;;;;;7.78;4.82;;;7.90;90.20;;;;;;5043890;28;20130;-68
2022/04/05 08:24:56;;;;;;;5.43;4.95;;;8.00;90.20;;;;;;5037403;28;20459;-68
2022/04/05 08:27:22;;;;;;;7.30;5.57;;;8.00;90.20;;;;;;5036004;28;20539;-67
2022/04/05 08:29:47;;;;;;;8.50;5.97;;;8.10;90.10;;;;;;5045905;28;20048;-67
2022/04/05 08:32:13;;;;;;;5.65;5.15;;;8.00;90.00;;;;;;5041272;28;20122;-67
2022/04/05 08:34:41;;;;;;;6.32;5.00;;;8.10;90.20;;;;;;5045640;28;20073;-66
2022/04/05 08:37:08;;;;;;;6.38;4.68;;;8.10;90.10;;;;;;5049754;28;20048;-65
2022/04/05 08:39:35;;;;;;;5.22;4.68;;;8.10;90.10;;;;;;5043453;28;20815;-66
2022/04/05 08:42:03;;;;;;;7.22;5.47;;;8.20;90.10;;;;;;5048701;28;20044;-65
2022/04/05 08:44:29;;;;;;;7.47;6.50;;;8.20;90.00;;;;;;5044267;28;20124;-66
2022/04/05 08:46:54;;;;;;;5.50;5.00;;;8.20;90.00;;;;;;5044391;28;20048;-67
2022/04/05 08:49:21;;;;;;;6.43;4.68;;;8.30;90.00;;;;;;5047555;28;20497;-66
2022/04/05 08:51:47;;;;;;;5.72;5.03;;;8.30;90.10;;;;;;5045308;28;20045;-66
2022/04/05 08:54:13;;;;;;;5.78;5.28;;;8.40;90.10;;;;;;5049493;28;20131;-67
2022/04/05 08:56:39;;;;;;;5.22;4.80;;;8.30;89.90;;;;;;5040599;28;20128;-67
2022/04/05 08:59:04;;;;;;;5.75;5.22;;;8.40;90.00;;;;;;5049238;28;20048;-66
2022/04/05 09:01:30;;;;;;;5.28;4.88;;;8.40;89.90;;;;;;5047661;28;20049;-67
2022/04/05 09:03:59;;;;;;;6.50;5.32;;;8.40;89.90;;;;;;5045160;28;20403;-67
2022/04/05 09:06:29;;;;;;;5.70;5.18;;;8.40;90.00;;;;;;5029775;28;20100;-66
2022/04/05 09:09:11;;;;;;;5.70;5.00;;;8.50;89.90;;;;;;5033308;28;20110;-66
2022/04/05 09:11:43;;;;;;;5.60;5.10;;;8.50;89.90;;;;;;5045106;28;20053;-66
2022/04/05 09:14:08;;;;;;;5.13;4.72;;;8.50;90.00;;;;;;5048429;28;20127;-66
2022/04/05 09:16:34;;;;;;;5.72;5.43;;;8.50;90.10;;;;;;5049509;28;20467;-67
2022/04/05 09:19:09;;;;;;;4.93;4.63;;;8.50;90.10;;;;;;5049420;28;20055;-67
2022/04/05 09:21:55;;;;;;;6.45;5.82;;;8.60;90.10;;;;;;5050062;28;20132;-67
2022/04/05 09:24:21;;;;;;;21.27;14.38;;;8.60;90.10;;;;;;5048854;28;20152;-67
2022/04/05 09:26:47;;;;;;;7.45;6.75;;;8.50;90.00;;;;;;5044572;28;20132;-68
2022/04/05 09:29:14;;;;;;;6.22;5.72;;;8.50;90.00;;;;;;5051479;28;20136;-67
2022/04/05 09:31:48;;;;;;;8.13;7.20;;;8.50;90.10;;;;;;5053210;28;20080;-67
2022/04/05 09:34:19;;;;;;;9.88;7.95;;;8.50;90.00;;;;;;5066766;28;20059;-67
2022/04/05 09:36:48;;;;;;;6.50;5.75;;;8.50;90.10;;;;;;5053089;28;20091;-67
2022/04/05 09:39:17;;;;;;;5.40;5.05;;;8.40;90.10;;;;;;5052936;28;20128;-66
2022/04/05 09:41:48;;;;;;;7.70;7.00;;;8.50;90.30;;;;;;5052970;28;20063;-66
2022/04/05 09:44:25;;;;;;;4.80;4.50;;;8.60;90.30;;;;;;5053571;28;20068;-66
2022/04/05 09:47:08;;;;;;;5.05;4.70;;;8.60;90.30;;;;;;5042754;28;20505;-67
2022/04/05 09:49:38;;;;;;;4.93;4.60;;;8.70;90.40;;;;;;5046669;28;20045;-66
2022/04/05 09:52:22;;;;;;;4.80;4.50;;;8.70;90.40;;;;;;5044129;28;20037;-67
2022/04/05 09:54:48;;;;;;;4.40;4.10;;;8.80;90.30;;;;;;5046315;28;20057;-66
2022/04/05 09:57:14;;;;;;;4.22;4.00;;;8.80;90.30;;;;;;5045439;28;20049;-67
2022/04/05 09:59:45;;;;;;;4.30;4.10;;;8.90;90.40;;;;;;5040020;28;20037;-66
2022/04/05 10:02:16;;;;;;;4.25;4.05;;;8.90;90.30;;;;;;5052534;28;20057;-67
2022/04/05 10:05:02;;;;;;;5.10;4.70;;;9.00;90.40;;;;;;5049248;28;20076;-67
2022/04/05 10:07:29;;;;;;;5.32;4.95;;;9.10;90.40;;;;;;5045291;28;20118;-67
2022/04/05 10:09:57;;;;;;;4.80;4.50;;;9.20;90.20;;;;;;5068550;28;20064;-67
2022/04/05 10:12:23;;;;;;;5.20;4.80;;;9.20;90.40;;;;;;5047929;28;20064;-67
2022/04/05 10:14:49;;;;;;;5.05;4.75;;;9.40;90.30;;;;;;5052610;28;20045;-67
2022/04/05 10:17:16;;;;;;;5.70;5.35;;;9.50;90.20;;;;;;5051799;28;20044;-68
2022/04/05 10:19:45;;;;;;;6.47;5.85;;;9.40;89.30;;;;;;5052791;28;20045;-67
2022/04/05 10:22:13;;;;;;;5.75;5.35;;;9.50;90.00;;;;;;5052535;28;20107;-68
2022/04/05 10:24:39;;;;;;;5.85;5.45;;;9.50;89.80;;;;;;5052213;28;20520;-68
2022/04/05 10:27:08;;;;;;;6.55;6.05;;;9.50;89.60;;;;;;5052834;28;20130;-68
2022/04/05 10:29:34;;;;;;;6.07;5.68;;;9.60;89.60;;;;;;5052213;28;20072;-66
2022/04/05 10:32:31;;;;;;;5.45;5.05;;;9.70;89.50;;;;;;5050740;28;20099;-68
2022/04/05 10:35:05;;;;;;;5.35;4.95;;;9.80;89.10;;;;;;5052959;28;20060;-68
2022/04/05 10:37:33;;;;;;;5.50;5.10;;;9.70;88.20;;;;;;5052440;28;20067;-67
2022/04/05 10:39:59;;;;;;;5.90;5.50;;;9.60;87.60;;;;;;5051228;28;20045;-68
2022/04/05 10:42:32;;;;;;;6.30;5.80;;;9.70;87.90;;;;;;5052198;28;20071;-68
2022/04/05 10:45:09;;;;;;;5.60;5.20;;;9.70;88.40;;;;;;5051797;28;20341;-68
2022/04/05 10:48:12;;;;;;;5.95;5.53;;;9.80;88.20;;;;;;5051715;28;20041;-67
2022/04/05 10:50:44;;;;;;;6.85;6.35;;;9.80;88.00;;;;;;5050910;28;20059;-69
2022/04/05 10:53:21;;;;;;;6.78;6.20;;;9.90;88.20;;;;;;5051587;28;20077;-68
2022/04/05 10:56:06;;;;;;;6.97;6.47;;;9.90;87.40;;;;;;5051125;28;20060;-67
2022/04/05 10:58:35;;;;;;;8.07;7.40;;;10.00;88.00;;;;;;5050387;28;20382;-67
2022/04/05 11:01:21;;;;;;;7.00;6.40;;;10.10;88.20;;;;;;5050753;28;20519;-67
2022/04/05 11:04:18;;;;;;;7.03;6.50;;;10.10;87.80;;;;;;5050602;28;20087;-67
2022/04/05 11:07:02;;;;;;;7.80;7.20;;;10.30;87.70;;;;;;5050206;28;20048;-68
2022/04/05 11:09:41;;;;;;;7.43;6.47;;;10.30;87.20;;;;;;5052049;28;20065;-67
2022/04/05 11:12:15;;;;;;;8.30;7.68;;;10.30;87.60;;;;;;5051124;28;20401;-67
2022/04/05 11:14:47;;;;;;;9.20;8.30;;;10.30;87.50;;;;;;5050018;28;20040;-66
2022/04/05 11:17:14;;;;;;;8.77;8.07;;;10.40;87.80;;;;;;5045716;28;20386;-67
2022/04/05 11:19:44;;;;;;;9.18;8.48;;;10.40;87.40;;;;;;5045796;28;20041;-66
2022/04/05 11:22:31;;;;;;;10.27;9.30;;;10.40;87.30;;;;;;5049058;28;20135;-66
2022/04/05 11:25:10;;;;;;;9.18;8.43;;;10.40;87.40;;;;;;5039577;28;20040;-67
2022/04/05 11:27:47;;;;;;;8.27;7.57;;;10.50;87.70;;;;;;5035179;28;20037;-66
2022/04/05 11:30:26;;;;;;;9.00;8.23;;;10.50;86.50;;;;;;5039856;28;20048;-66
2022/04/05 11:33:14;;;;;;;9.25;8.35;;;10.60;87.10;;;;;;5050929;28;20055;-66
2022/04/05 11:35:51;;;;;;;9.18;8.27;;;10.60;87.10;;;;;;5047515;28;20123;-67
2022/04/05 11:38:17;;;;;;;13.45;8.13;;;10.60;86.90;;;;;;5050061;28;20029;-66
2022/04/05 11:40:51;;;;;;;11.05;9.75;;;10.50;86.90;;;;;;5050465;28;20060;-67
2022/04/05 11:43:30;;;;;;;12.65;10.02;;;10.50;86.70;;;;;;5050462;28;20405;-66
2022/04/05 11:45:58;;;;;;;13.20;10.85;;;10.50;87.00;;;;;;5048858;28;20049;-66
2022/04/05 11:48:28;;;;;;;12.32;9.52;;;10.50;87.10;;;;;;5056104;28;20498;-66
2022/04/05 11:50:57;;;;;;;14.50;10.27;;;10.50;87.40;;;;;;5044892;28;20045;-67
2022/04/05 11:53:27;;;;;;;17.88;11.82;;;10.50;87.20;;;;;;5049135;28;20807;-67
2022/04/05 11:56:17;;;;;;;12.50;9.43;;;10.50;87.30;;;;;;5049308;28;20052;-66
2022/04/05 11:58:48;;;;;;;12.52;9.80;;;10.50;87.40;;;;;;5050510;28;20147;-67
2022/04/05 12:01:18;;;;;;;16.40;9.32;;;10.50;87.50;;;;;;5050577;28;20048;-67
2022/04/05 12:03:46;;;;;;;11.68;8.43;;;10.50;87.70;;;;;;5050055;28;20445;-68
2022/04/05 12:06:13;;;;;;;11.60;8.80;;;10.60;88.10;;;;;;5040710;28;20037;-67
2022/04/05 12:08:40;;;;;;;13.45;9.25;;;10.40;88.40;;;;;;5048165;28;20122;-67
2022/04/05 12:11:07;;;;;;;18.13;9.13;;;10.40;88.90;;;;;;5048444;28;20072;-67
2022/04/05 12:13:35;;;;;;;11.80;8.40;;;10.40;89.30;;;;;;5045867;28;20098;-67
2022/04/05 12:16:04;;;;;;;14.75;8.95;;;10.30;89.60;;;;;;5047394;28;20044;-69
2022/04/05 12:18:30;;;;;;;19.40;10.02;;;10.30;89.60;;;;;;5049810;28;20615;-67
2022/04/05 12:21:07;;;;;;;23.40;10.18;;;10.10;89.70;;;;;;5047506;28;20076;-67
2022/04/05 12:23:37;;;;;;;17.45;10.30;;;10.10;90.10;;;;;;5045237;28;20561;-67
2022/04/05 12:26:11;;;;;;;22.55;10.05;;;10.00;90.30;;;;;;5047408;28;20056;-67
2022/04/05 12:28:52;;;;;;;22.50;9.50;;;10.00;90.40;;;;;;5047236;28;20036;-67
2022/04/05 12:31:27;;;;;;;16.90;10.13;;;10.00;90.50;;;;;;5047182;28;20044;-67
2022/04/05 12:34:06;;;;;;;21.63;11.82;;;10.10;90.60;;;;;;5048737;28;20055;-67
2022/04/05 12:36:33;;;;;;;21.63;10.82;;;10.00;90.80;;;;;;5047136;28;20040;-67
2022/04/05 12:38:59;;;;;;;20.80;11.75;;;9.90;90.80;;;;;;5047634;28;20051;-67
2022/04/05 12:41:25;;;;;;;28.80;11.18;;;10.00;90.80;;;;;;5048229;28;20049;-67
2022/04/05 12:44:13;;;;;;;26.52;12.18;;;10.00;90.80;;;;;;5049480;28;20049;-67
2022/04/05 12:46:51;;;;;;;33.35;11.20;;;9.90;90.70;;;;;;5051560;28;20321;-67
2022/04/05 12:49:23;;;;;;;29.23;12.27;;;9.90;91.20;;;;;;5048216;28;20044;-67
2022/04/05 12:51:50;;;;;;;22.90;10.80;;;9.90;91.20;;;;;;5048293;28;20103;-67
2022/04/05 12:54:30;;;;;;;28.42;11.48;;;9.90;91.30;;;;;;5049594;28;20041;-66
2022/04/05 12:57:30;;;;;;;35.20;11.35;;;9.90;90.90;;;;;;5044756;28;20136;-67